createdAt,value
2022-09-23T00:00:25.790Z,0.00
2022-09-23T00:01:25.846Z,0.00
2022-09-23T00:02:25.811Z,0.00
2022-09-23T00:03:25.747Z,0.00
2022-09-23T00:04:25.750Z,0.00
2022-09-23T00:05:25.742Z,0.00
2022-09-23T00:06:25.737Z,0.00
2022-09-23T00:07:25.739Z,0.00
2022-09-23T00:08:25.726Z,0.00
2022-09-23T00:09:25.706Z,0.00
2022-09-23T00:10:25.710Z,0.00
2022-09-23T00:11:25.699Z,0.00
2022-09-23T00:12:25.706Z,0.00
2022-09-23T00:13:25.689Z,0.00
2022-09-23T00:14:25.681Z,0.00
2022-09-23T00:15:26.669Z,0.00
2022-09-23T00:16:25.711Z,0.00
2022-09-23T00:17:25.664Z,0.00
2022-09-23T00:18:25.656Z,0.00
2022-09-23T00:19:25.654Z,0.00
2022-09-23T00:20:25.641Z,0.00
2022-09-23T00:21:25.633Z,0.00
2022-09-23T00:22:25.638Z,0.00
2022-09-23T00:23:25.629Z,0.00
2022-09-23T00:24:25.663Z,0.00
2022-09-23T00:25:25.616Z,0.00
2022-09-23T00:26:25.611Z,0.00
2022-09-23T00:27:25.594Z,0.00
2022-09-23T00:28:25.582Z,0.00
2022-09-23T00:29:25.604Z,0.00
2022-09-23T00:30:25.615Z,0.00
2022-09-23T00:31:25.575Z,0.00
2022-09-23T00:32:25.574Z,0.00
2022-09-23T00:33:25.563Z,0.00
2022-09-23T00:34:25.567Z,0.00
2022-09-23T00:35:25.554Z,0.00
2022-09-23T00:36:25.538Z,0.00
2022-09-23T00:37:25.534Z,0.00
2022-09-23T00:38:25.539Z,0.00
2022-09-23T00:39:25.567Z,0.00
2022-09-23T00:40:25.582Z,0.00
2022-09-23T00:41:25.522Z,0.00
2022-09-23T00:42:25.514Z,0.00
2022-09-23T00:43:25.503Z,0.00
2022-09-23T00:44:25.513Z,0.00
2022-09-23T00:45:25.490Z,0.00
2022-09-23T00:46:25.566Z,0.00
2022-09-23T00:47:25.471Z,0.00
2022-09-23T00:48:25.474Z,0.00
2022-09-23T00:49:25.459Z,0.00
2022-09-23T00:50:25.462Z,0.00
2022-09-23T00:51:25.483Z,0.00
2022-09-23T00:52:25.459Z,0.00
2022-09-23T00:53:25.434Z,0.00
2022-09-23T00:54:25.438Z,0.00
2022-09-23T00:55:25.440Z,0.00
2022-09-23T00:56:25.978Z,0.00
2022-09-23T00:57:25.430Z,0.00
2022-09-23T00:58:25.408Z,0.00
2022-09-23T00:59:25.398Z,0.00
2022-09-23T01:00:25.398Z,0.00
2022-09-23T01:01:25.422Z,0.00
2022-09-23T01:02:25.499Z,0.00
2022-09-23T01:03:25.381Z,0.00
2022-09-23T01:04:25.368Z,0.00
2022-09-23T01:05:25.358Z,0.00
2022-09-23T01:06:25.357Z,0.00
2022-09-23T01:07:25.360Z,0.00
2022-09-23T01:08:25.346Z,0.00
2022-09-23T01:09:25.356Z,0.00
2022-09-23T01:10:25.342Z,0.00
2022-09-23T01:11:25.324Z,0.00
2022-09-23T01:12:25.314Z,0.00
2022-09-23T01:13:25.318Z,0.00
2022-09-23T01:14:25.314Z,0.00
2022-09-23T01:15:25.308Z,0.00
2022-09-23T01:16:25.360Z,0.00
2022-09-23T01:17:25.290Z,0.00
2022-09-23T01:18:25.289Z,0.00
2022-09-23T01:19:25.302Z,0.00
2022-09-23T01:20:25.279Z,0.00
2022-09-23T01:21:25.274Z,0.00
2022-09-23T01:22:25.250Z,0.00
2022-09-23T01:23:25.246Z,0.00
2022-09-23T01:24:25.261Z,0.00
2022-09-23T01:25:25.239Z,0.00
2022-09-23T01:26:25.227Z,0.00
2022-09-23T01:27:25.233Z,0.00
2022-09-23T01:28:25.222Z,0.00
2022-09-23T01:29:25.211Z,0.00
2022-09-23T01:30:25.448Z,0.00
2022-09-23T01:31:25.205Z,0.00
2022-09-23T01:32:25.208Z,0.00
2022-09-23T01:33:25.190Z,0.00
2022-09-23T01:34:25.186Z,0.00
2022-09-23T01:35:25.185Z,0.00
2022-09-23T01:36:25.175Z,0.00
2022-09-23T01:37:25.162Z,0.00
2022-09-23T01:38:25.155Z,0.00
2022-09-23T01:39:25.145Z,0.00
2022-09-23T01:40:25.240Z,0.00
2022-09-23T01:41:25.142Z,0.00
2022-09-23T01:42:25.127Z,0.00
2022-09-23T01:43:25.115Z,0.00
2022-09-23T01:44:25.129Z,0.00
2022-09-23T01:45:25.130Z,0.00
2022-09-23T01:46:25.110Z,0.00
2022-09-23T01:47:25.098Z,0.00
2022-09-23T01:48:25.133Z,0.00
2022-09-23T01:49:25.082Z,0.00
2022-09-23T01:50:25.090Z,0.00
2022-09-23T01:51:25.086Z,0.00
2022-09-23T01:52:25.062Z,0.00
2022-09-23T01:53:25.070Z,0.00
2022-09-23T01:54:25.054Z,0.00
2022-09-23T01:55:25.070Z,0.00
2022-09-23T01:56:25.173Z,0.00
2022-09-23T01:57:25.036Z,0.00
2022-09-23T01:58:25.026Z,0.00
2022-09-23T01:59:25.026Z,0.00
2022-09-23T02:00:25.018Z,0.00
2022-09-23T02:01:25.113Z,0.00
2022-09-23T02:02:25.054Z,0.00
2022-09-23T02:03:24.999Z,0.00
2022-09-23T02:04:24.986Z,0.00
2022-09-23T02:05:24.982Z,0.00
2022-09-23T02:06:24.989Z,0.00
2022-09-23T02:07:24.974Z,0.00
2022-09-23T02:08:24.968Z,0.00
2022-09-23T02:09:24.988Z,0.00
2022-09-23T02:10:24.954Z,0.00
2022-09-23T02:11:24.991Z,0.00
2022-09-23T02:12:24.945Z,0.00
2022-09-23T02:13:24.941Z,0.00
2022-09-23T02:14:24.921Z,0.00
2022-09-23T02:15:24.924Z,0.00
2022-09-23T02:16:24.976Z,0.00
2022-09-23T02:17:24.906Z,0.00
2022-09-23T02:18:24.901Z,0.00
2022-09-23T02:19:24.898Z,0.00
2022-09-23T02:20:24.886Z,0.00
2022-09-23T02:21:24.906Z,0.00
2022-09-23T02:22:24.881Z,0.00
2022-09-23T02:23:24.872Z,0.00
2022-09-23T02:24:24.882Z,0.00
2022-09-23T02:25:24.854Z,0.00
2022-09-23T02:26:24.842Z,0.00
2022-09-23T02:27:24.854Z,0.00
2022-09-23T02:28:24.842Z,0.00
2022-09-23T02:29:24.829Z,0.00
2022-09-23T02:30:24.827Z,0.00
2022-09-23T02:31:24.869Z,0.00
2022-09-23T02:32:24.823Z,0.00
2022-09-23T02:33:24.805Z,0.00
2022-09-23T02:34:24.798Z,0.00
2022-09-23T02:35:24.793Z,0.00
2022-09-23T02:36:24.798Z,0.00
2022-09-23T02:37:24.778Z,0.00
2022-09-23T02:38:24.780Z,0.00
2022-09-23T02:39:24.769Z,0.00
2022-09-23T02:40:24.788Z,0.00
2022-09-23T02:41:24.779Z,0.00
2022-09-23T02:42:24.745Z,0.00
2022-09-23T02:43:24.741Z,0.00
2022-09-23T02:44:24.737Z,0.00
2022-09-23T02:45:24.721Z,0.00
2022-09-23T02:46:24.856Z,0.00
2022-09-23T02:47:24.726Z,0.00
2022-09-23T02:48:24.710Z,0.00
2022-09-23T02:49:24.706Z,0.00
2022-09-23T02:50:24.684Z,0.00
2022-09-23T02:51:24.702Z,0.00
2022-09-23T02:52:24.701Z,0.00
2022-09-23T02:53:24.682Z,0.00
2022-09-23T02:54:24.683Z,0.00
2022-09-23T02:55:24.673Z,0.00
2022-09-23T02:56:24.666Z,0.00
2022-09-23T02:57:24.659Z,0.00
2022-09-23T02:58:24.650Z,0.00
2022-09-23T02:59:24.637Z,0.00
2022-09-23T03:00:24.629Z,0.00
2022-09-23T03:01:24.690Z,0.00
2022-09-23T03:02:24.676Z,0.00
2022-09-23T03:03:24.642Z,0.00
2022-09-23T03:04:25.605Z,0.00
2022-09-23T03:05:24.605Z,0.00
2022-09-23T03:06:24.593Z,0.00
2022-09-23T03:07:24.599Z,0.00
2022-09-23T03:08:24.589Z,0.00
2022-09-23T03:09:24.574Z,0.00
2022-09-23T03:10:24.571Z,0.00
2022-09-23T03:11:24.567Z,0.00
2022-09-23T03:12:24.554Z,0.00
2022-09-23T03:13:28.712Z,0.00
2022-09-23T03:14:25.557Z,0.00
2022-09-23T03:15:24.522Z,0.00
2022-09-23T03:16:24.603Z,0.00
2022-09-23T03:17:24.525Z,0.00
2022-09-23T03:18:24.513Z,0.00
2022-09-23T03:19:24.525Z,0.00
2022-09-23T03:20:24.514Z,0.00
2022-09-23T03:21:24.503Z,0.00
2022-09-23T03:22:24.495Z,0.00
2022-09-23T03:23:24.487Z,0.00
2022-09-23T03:24:24.497Z,0.00
2022-09-23T03:25:24.473Z,0.00
2022-09-23T03:26:24.469Z,0.00
2022-09-23T03:27:24.457Z,0.00
2022-09-23T03:28:24.450Z,0.00
2022-09-23T03:29:24.462Z,0.00
2022-09-23T03:30:24.440Z,0.00
2022-09-23T03:31:24.441Z,0.00
2022-09-23T03:32:24.434Z,0.00
2022-09-23T03:33:28.414Z,0.00
2022-09-23T03:34:25.419Z,0.00
2022-09-23T03:35:24.422Z,0.00
2022-09-23T03:36:24.403Z,0.00
2022-09-23T03:37:24.391Z,0.00
2022-09-23T03:38:24.377Z,0.00
2022-09-23T03:39:24.382Z,0.00
2022-09-23T03:40:24.441Z,0.00
2022-09-23T03:41:24.388Z,0.00
2022-09-23T03:42:24.370Z,0.00
2022-09-23T03:43:24.340Z,0.00
2022-09-23T03:44:24.342Z,0.00
2022-09-23T03:45:24.377Z,0.00
2022-09-23T03:46:24.334Z,0.00
2022-09-23T03:47:24.322Z,0.00
2022-09-23T03:48:24.325Z,0.00
2022-09-23T03:49:24.315Z,0.00
2022-09-23T03:50:24.305Z,0.00
2022-09-23T03:51:24.302Z,0.00
2022-09-23T03:52:24.309Z,0.00
2022-09-23T03:53:24.281Z,0.00
2022-09-23T03:54:24.285Z,0.00
2022-09-23T03:55:24.273Z,0.00
2022-09-23T03:56:24.266Z,0.00
2022-09-23T03:57:24.286Z,0.00
2022-09-23T03:58:24.257Z,0.00
2022-09-23T03:59:24.245Z,0.00
2022-09-23T04:00:24.245Z,0.00
2022-09-23T04:01:24.279Z,0.00
2022-09-23T04:02:24.306Z,0.00
2022-09-23T04:03:24.229Z,0.00
2022-09-23T04:04:24.213Z,0.00
2022-09-23T04:05:24.213Z,0.00
2022-09-23T04:06:24.209Z,0.00
2022-09-23T04:07:24.198Z,0.00
2022-09-23T04:08:24.180Z,0.00
2022-09-23T04:09:24.185Z,0.00
2022-09-23T04:10:24.189Z,0.00
2022-09-23T04:11:24.169Z,0.00
2022-09-23T04:12:24.161Z,0.00
2022-09-23T04:13:24.157Z,0.00
2022-09-23T04:14:24.147Z,0.00
2022-09-23T04:15:24.153Z,0.00
2022-09-23T04:16:24.203Z,0.00
2022-09-23T04:17:24.124Z,0.00
2022-09-23T04:18:24.121Z,0.00
2022-09-23T04:19:24.117Z,0.00
2022-09-23T04:20:24.130Z,0.00
2022-09-23T04:21:24.105Z,0.00
2022-09-23T04:22:24.087Z,0.00
2022-09-23T04:23:24.089Z,0.00
2022-09-23T04:24:24.093Z,0.00
2022-09-23T04:25:24.101Z,0.00
2022-09-23T04:26:24.071Z,0.00
2022-09-23T04:27:24.077Z,0.00
2022-09-23T04:28:24.065Z,0.00
2022-09-23T04:29:24.052Z,0.00
2022-09-23T04:30:24.041Z,0.00
2022-09-23T04:31:24.164Z,0.00
2022-09-23T04:32:24.033Z,0.00
2022-09-23T04:33:24.021Z,0.00
2022-09-23T04:34:24.018Z,0.00
2022-09-23T04:35:24.017Z,0.00
2022-09-23T04:36:24.012Z,0.00
2022-09-23T04:37:24.004Z,0.00
2022-09-23T04:38:23.998Z,0.00
2022-09-23T04:39:23.988Z,0.00
2022-09-23T04:40:24.004Z,0.00
2022-09-23T04:41:23.994Z,0.00
2022-09-23T04:42:23.979Z,0.00
2022-09-23T04:43:23.968Z,0.00
2022-09-23T04:44:23.965Z,0.00
2022-09-23T04:45:23.957Z,0.00
2022-09-23T04:46:23.986Z,0.00
2022-09-23T04:47:23.941Z,0.00
2022-09-23T04:48:23.926Z,0.00
2022-09-23T04:49:23.933Z,0.00
2022-09-23T04:50:23.920Z,0.00
2022-09-23T04:51:23.921Z,0.00
2022-09-23T04:52:23.919Z,0.00
2022-09-23T04:53:23.900Z,0.00
2022-09-23T04:54:23.894Z,0.00
2022-09-23T04:55:23.877Z,0.00
2022-09-23T04:56:23.883Z,0.00
2022-09-23T04:57:23.897Z,0.00
2022-09-23T04:58:24.870Z,0.00
2022-09-23T04:59:23.860Z,0.00
2022-09-23T05:00:23.855Z,0.00
2022-09-23T05:01:23.902Z,5.62
2022-09-23T05:02:23.886Z,5.62
2022-09-23T05:03:23.836Z,5.62
2022-09-23T05:04:23.829Z,5.62
2022-09-23T05:05:23.817Z,5.62
2022-09-23T05:06:23.818Z,5.62
2022-09-23T05:07:23.825Z,5.62
2022-09-23T05:08:23.797Z,5.62
2022-09-23T05:09:23.795Z,11.25
2022-09-23T05:10:23.789Z,11.25
2022-09-23T05:11:23.784Z,11.25
2022-09-23T05:12:23.788Z,11.25
2022-09-23T05:13:23.765Z,11.25
2022-09-23T05:14:23.765Z,11.25
2022-09-23T05:15:23.757Z,16.88
2022-09-23T05:16:23.815Z,16.88
2022-09-23T05:17:23.744Z,16.88
2022-09-23T05:18:23.785Z,16.88
2022-09-23T05:19:23.728Z,16.88
2022-09-23T05:20:23.732Z,22.50
2022-09-23T05:21:23.717Z,22.50
2022-09-23T05:22:23.710Z,22.50
2022-09-23T05:23:23.720Z,22.50
2022-09-23T05:24:23.700Z,28.12
2022-09-23T05:25:23.690Z,28.12
2022-09-23T05:26:23.686Z,28.12
2022-09-23T05:27:23.676Z,33.75
2022-09-23T05:28:23.673Z,33.75
2022-09-23T05:29:23.681Z,33.75
2022-09-23T05:30:23.678Z,39.38
2022-09-23T05:31:23.703Z,39.38
2022-09-23T05:32:23.648Z,39.38
2022-09-23T05:33:23.629Z,45.00
2022-09-23T05:34:23.645Z,45.00
2022-09-23T05:35:23.619Z,45.00
2022-09-23T05:36:23.616Z,50.62
2022-09-23T05:37:23.608Z,50.62
2022-09-23T05:38:23.609Z,56.25
2022-09-23T05:39:23.603Z,56.25
2022-09-23T05:40:23.638Z,61.88
2022-09-23T05:41:23.584Z,61.88
2022-09-23T05:42:23.577Z,61.88
2022-09-23T05:43:23.570Z,67.50
2022-09-23T05:44:23.580Z,67.50
2022-09-23T05:45:24.311Z,67.50
2022-09-23T05:46:23.655Z,73.12
2022-09-23T05:47:23.549Z,73.12
2022-09-23T05:48:23.538Z,73.12
2022-09-23T05:49:37.646Z,73.12
2022-09-23T05:50:24.532Z,78.75
2022-09-23T05:51:27.517Z,78.75
2022-09-23T05:52:24.528Z,78.75
2022-09-23T05:53:23.512Z,78.75
2022-09-23T05:54:23.524Z,84.38
2022-09-23T05:55:23.501Z,90.00
2022-09-23T05:56:23.496Z,90.00
2022-09-23T05:57:23.487Z,95.62
2022-09-23T05:58:23.472Z,101.25
2022-09-23T05:59:23.484Z,106.88
2022-09-23T06:00:23.473Z,106.88
2022-09-23T06:01:23.464Z,112.50
2022-09-23T06:02:23.570Z,118.12
2022-09-23T06:03:23.513Z,123.75
2022-09-23T06:04:23.458Z,129.38
2022-09-23T06:05:23.442Z,135.00
2022-09-23T06:06:23.432Z,135.00
2022-09-23T06:07:23.460Z,140.62
2022-09-23T06:08:23.430Z,146.25
2022-09-23T06:09:23.407Z,151.88
2022-09-23T06:10:23.412Z,157.50
2022-09-23T06:11:23.406Z,157.50
2022-09-23T06:12:23.399Z,157.50
2022-09-23T06:13:23.396Z,163.12
2022-09-23T06:14:23.376Z,168.75
2022-09-23T06:15:23.391Z,174.38
2022-09-23T06:16:23.430Z,174.38
2022-09-23T06:17:23.505Z,180.00
2022-09-23T06:18:23.356Z,180.00
2022-09-23T06:19:23.348Z,185.62
2022-09-23T06:20:23.348Z,191.25
2022-09-23T06:21:23.320Z,191.25
2022-09-23T06:22:23.341Z,191.25
2022-09-23T06:23:26.569Z,196.88
2022-09-23T06:24:30.197Z,196.88
2022-09-23T06:25:24.317Z,202.50
2022-09-23T06:26:23.294Z,208.12
2022-09-23T06:27:23.289Z,208.12
2022-09-23T06:28:23.284Z,213.75
2022-09-23T06:29:23.292Z,213.75
2022-09-23T06:30:23.284Z,213.75
2022-09-23T06:31:23.312Z,213.75
2022-09-23T06:32:23.256Z,219.38
2022-09-23T06:33:34.329Z,225.00
2022-09-23T06:34:25.252Z,241.88
2022-09-23T06:35:27.474Z,258.75
2022-09-23T06:36:37.606Z,264.38
2022-09-23T06:37:25.219Z,303.75
2022-09-23T06:38:23.220Z,298.12
2022-09-23T06:39:23.209Z,270.00
2022-09-23T06:40:23.224Z,286.88
2022-09-23T06:41:23.204Z,354.38
2022-09-23T06:42:23.179Z,427.50
2022-09-23T06:43:23.176Z,461.25
2022-09-23T06:44:23.168Z,416.25
2022-09-23T06:45:23.152Z,382.50
2022-09-23T06:46:23.237Z,382.50
2022-09-23T06:47:23.158Z,360.00
2022-09-23T06:48:23.146Z,348.75
2022-09-23T06:49:23.141Z,393.75
2022-09-23T06:50:23.136Z,466.88
2022-09-23T06:51:23.121Z,528.75
2022-09-23T06:52:23.156Z,511.88
2022-09-23T06:53:23.118Z,421.88
2022-09-23T06:54:23.108Z,393.75
2022-09-23T06:55:23.100Z,371.25
2022-09-23T06:56:23.095Z,421.88
2022-09-23T06:57:23.119Z,455.62
2022-09-23T06:58:23.067Z,388.12
2022-09-23T06:59:23.062Z,331.88
2022-09-23T07:00:23.064Z,298.12
2022-09-23T07:01:23.095Z,275.62
2022-09-23T07:02:23.186Z,264.38
2022-09-23T07:03:23.048Z,258.75
2022-09-23T07:04:26.129Z,264.38
2022-09-23T07:05:24.025Z,264.38
2022-09-23T07:06:23.019Z,270.00
2022-09-23T07:07:23.004Z,270.00
2022-09-23T07:08:23.027Z,258.75
2022-09-23T07:09:23.005Z,258.75
2022-09-23T07:10:22.987Z,275.62
2022-09-23T07:11:22.980Z,309.38
2022-09-23T07:12:23.007Z,354.38
2022-09-23T07:13:22.959Z,354.38
2022-09-23T07:14:22.964Z,360.00
2022-09-23T07:15:22.960Z,382.50
2022-09-23T07:16:22.994Z,427.50
2022-09-23T07:17:22.979Z,478.12
2022-09-23T07:18:22.944Z,495.00
2022-09-23T07:19:22.917Z,506.25
2022-09-23T07:20:23.966Z,573.75
2022-09-23T07:21:22.928Z,635.62
2022-09-23T07:22:22.917Z,703.12
2022-09-23T07:23:22.916Z,748.12
2022-09-23T07:24:22.900Z,798.75
2022-09-23T07:25:22.896Z,866.25
2022-09-23T07:26:22.926Z,871.88
2022-09-23T07:27:22.884Z,866.25
2022-09-23T07:28:22.957Z,871.88
2022-09-23T07:29:22.880Z,843.75
2022-09-23T07:30:25.349Z,883.12
2022-09-23T07:31:35.999Z,973.12
2022-09-23T07:32:24.953Z,945.00
2022-09-23T07:33:31.804Z,781.88
2022-09-23T07:34:24.845Z,905.62
2022-09-23T07:35:22.833Z,838.12
2022-09-23T07:36:22.825Z,832.50
2022-09-23T07:37:22.829Z,922.50
2022-09-23T07:38:22.957Z,990.00
2022-09-23T07:39:22.800Z,1051.88
2022-09-23T07:40:22.833Z,1158.75
2022-09-23T07:41:22.783Z,1068.75
2022-09-23T07:42:22.792Z,1102.50
2022-09-23T07:43:22.795Z,1186.88
2022-09-23T07:44:22.787Z,1040.62
2022-09-23T07:45:22.763Z,1102.50
2022-09-23T07:46:22.799Z,1153.12
2022-09-23T07:47:22.748Z,1186.88
2022-09-23T07:48:22.751Z,1209.38
2022-09-23T07:49:22.756Z,1333.12
2022-09-23T07:50:22.802Z,1361.25
2022-09-23T07:51:22.730Z,1333.12
2022-09-23T07:52:22.724Z,1158.75
2022-09-23T07:53:22.717Z,1237.50
2022-09-23T07:54:22.720Z,1276.88
2022-09-23T07:55:22.705Z,1192.50
2022-09-23T07:56:22.696Z,1147.50
2022-09-23T07:57:22.683Z,990.00
2022-09-23T07:58:22.687Z,933.75
2022-09-23T07:59:22.680Z,1051.88
2022-09-23T08:00:22.809Z,1130.62
2022-09-23T08:01:22.785Z,916.88
2022-09-23T08:02:22.759Z,832.50
2022-09-23T08:03:22.664Z,1057.50
2022-09-23T08:04:22.652Z,1299.38
2022-09-23T08:05:22.642Z,1288.12
2022-09-23T08:06:22.643Z,1366.88
2022-09-23T08:07:23.628Z,1440.00
2022-09-23T08:08:22.616Z,1440.00
2022-09-23T08:09:22.633Z,1473.75
2022-09-23T08:10:22.721Z,1558.12
2022-09-23T08:11:22.599Z,1591.88
2022-09-23T08:12:22.584Z,1603.12
2022-09-23T08:13:22.591Z,1569.38
2022-09-23T08:14:22.587Z,1659.38
2022-09-23T08:15:22.579Z,1676.25
2022-09-23T08:16:22.601Z,1625.62
2022-09-23T08:17:22.563Z,1597.50
2022-09-23T08:18:22.556Z,1541.25
2022-09-23T08:19:22.559Z,1462.50
2022-09-23T08:20:22.589Z,1473.75
2022-09-23T08:21:22.537Z,1558.12
2022-09-23T08:22:22.535Z,1603.12
2022-09-23T08:23:22.526Z,1546.88
2022-09-23T08:24:22.538Z,1468.12
2022-09-23T08:25:22.812Z,1563.75
2022-09-23T08:26:23.504Z,1620.00
2022-09-23T08:27:22.508Z,1569.38
2022-09-23T08:28:22.493Z,1591.88
2022-09-23T08:29:22.491Z,1603.12
2022-09-23T08:30:22.515Z,1620.00
2022-09-23T08:31:22.542Z,1676.25
2022-09-23T08:32:22.478Z,1710.00
2022-09-23T08:33:23.622Z,1591.88
2022-09-23T08:34:23.457Z,1541.25
2022-09-23T08:35:22.456Z,1546.88
2022-09-23T08:36:22.479Z,1530.00
2022-09-23T08:37:22.435Z,1417.50
2022-09-23T08:38:22.435Z,1440.00
2022-09-23T08:39:22.427Z,1378.12
2022-09-23T08:40:22.447Z,1608.75
2022-09-23T08:41:22.418Z,1710.00
2022-09-23T08:42:22.407Z,1710.00
2022-09-23T08:43:22.411Z,1597.50
2022-09-23T08:44:22.390Z,1625.62
2022-09-23T08:45:22.387Z,1518.75
2022-09-23T08:46:22.409Z,1434.38
2022-09-23T08:47:22.374Z,1417.50
2022-09-23T08:48:22.380Z,1260.00
2022-09-23T08:49:22.367Z,978.75
2022-09-23T08:50:22.354Z,1265.62
2022-09-23T08:51:22.348Z,1530.00
2022-09-23T08:52:22.320Z,1670.62
2022-09-23T08:53:22.340Z,1355.62
2022-09-23T08:54:22.344Z,1710.00
2022-09-23T08:55:22.324Z,1957.50
2022-09-23T08:56:22.316Z,1794.38
2022-09-23T08:57:22.307Z,1783.12
2022-09-23T08:58:25.267Z,1743.75
2022-09-23T08:59:23.308Z,1659.38
2022-09-23T09:00:22.280Z,1665.00
2022-09-23T09:01:22.319Z,1614.38
2022-09-23T09:02:22.299Z,1732.50
2022-09-23T09:03:22.284Z,1693.12
2022-09-23T09:04:22.268Z,1642.50
2022-09-23T09:05:22.258Z,1698.75
2022-09-23T09:06:22.255Z,1614.38
2022-09-23T09:07:36.189Z,1507.50
2022-09-23T09:08:24.247Z,1580.62
2022-09-23T09:09:22.252Z,1591.88
2022-09-23T09:10:22.221Z,1704.38
2022-09-23T09:11:22.224Z,1620.00
2022-09-23T09:12:22.223Z,1591.88
2022-09-23T09:13:22.208Z,1625.62
2022-09-23T09:14:22.209Z,1563.75
2022-09-23T09:15:24.625Z,1575.00
2022-09-23T09:16:41.798Z,1507.50
2022-09-23T09:17:24.184Z,1552.50
2022-09-23T09:18:22.172Z,1608.75
2022-09-23T09:19:22.179Z,1546.88
2022-09-23T09:20:22.160Z,1518.75
2022-09-23T09:21:22.189Z,1665.00
2022-09-23T09:22:22.156Z,1721.25
2022-09-23T09:23:22.144Z,1715.62
2022-09-23T09:24:22.155Z,1800.00
2022-09-23T09:25:22.160Z,1687.50
2022-09-23T09:26:22.139Z,1676.25
2022-09-23T09:27:22.124Z,1687.50
2022-09-23T09:28:22.112Z,1575.00
2022-09-23T09:29:35.083Z,1603.12
2022-09-23T09:30:24.135Z,1816.88
2022-09-23T09:31:22.905Z,1738.12
2022-09-23T09:32:22.104Z,1755.00
2022-09-23T09:33:22.083Z,1760.62
2022-09-23T09:34:22.091Z,1766.25
2022-09-23T09:35:22.079Z,1715.62
2022-09-23T09:36:22.065Z,1659.38
2022-09-23T09:37:22.092Z,1760.62
2022-09-23T09:38:22.113Z,1771.88
2022-09-23T09:39:26.067Z,2064.38
2022-09-23T09:40:23.107Z,1996.88
2022-09-23T09:41:22.043Z,2098.12
2022-09-23T09:42:22.056Z,2002.50
2022-09-23T09:43:22.044Z,1839.38
2022-09-23T09:44:22.023Z,1890.00
2022-09-23T09:45:22.020Z,2064.38
2022-09-23T09:46:22.054Z,2013.75
2022-09-23T09:47:22.012Z,1968.75
2022-09-23T09:48:22.015Z,1800.00
2022-09-23T09:49:22.020Z,1878.75
2022-09-23T09:50:22.001Z,1968.75
2022-09-23T09:51:21.992Z,1867.50
2022-09-23T09:52:21.982Z,2019.38
2022-09-23T09:53:21.933Z,2002.50
2022-09-23T09:54:21.916Z,1968.75
2022-09-23T09:55:21.926Z,1918.12
2022-09-23T09:56:21.901Z,2092.50
2022-09-23T09:57:21.896Z,2115.00
2022-09-23T09:58:21.892Z,2041.88
2022-09-23T09:59:22.686Z,2047.50
2022-09-23T10:00:21.895Z,1974.38
2022-09-23T10:01:21.926Z,2008.12
2022-09-23T10:02:21.857Z,2058.75
2022-09-23T10:03:21.858Z,2205.00
2022-09-23T10:04:21.917Z,2272.50
2022-09-23T10:05:21.862Z,2115.00
2022-09-23T10:06:21.841Z,2013.75
2022-09-23T10:07:21.841Z,2047.50
2022-09-23T10:08:21.837Z,2070.00
2022-09-23T10:09:21.833Z,2221.88
2022-09-23T10:10:32.500Z,1991.25
2022-09-23T10:11:23.823Z,2103.75
2022-09-23T10:12:21.808Z,2227.50
2022-09-23T10:13:21.814Z,2216.25
2022-09-23T10:14:21.803Z,2188.12
2022-09-23T10:15:21.791Z,2036.25
2022-09-23T10:16:21.849Z,2188.12
2022-09-23T10:17:21.778Z,2351.25
2022-09-23T10:18:21.781Z,2368.12
2022-09-23T10:19:21.782Z,2278.12
2022-09-23T10:20:21.756Z,2233.12
2022-09-23T10:21:26.909Z,2137.50
2022-09-23T10:22:22.752Z,2261.25
2022-09-23T10:23:21.767Z,2216.25
2022-09-23T10:24:21.782Z,2019.38
2022-09-23T10:25:21.737Z,2002.50
2022-09-23T10:26:21.770Z,1929.38
2022-09-23T10:27:21.728Z,1698.75
2022-09-23T10:28:21.722Z,1456.88
2022-09-23T10:29:21.725Z,1608.75
2022-09-23T10:30:21.774Z,1805.62
2022-09-23T10:31:21.776Z,2148.75
2022-09-23T10:32:21.743Z,2171.25
2022-09-23T10:33:21.701Z,2115.00
2022-09-23T10:34:21.713Z,2036.25
2022-09-23T10:35:21.696Z,2193.75
2022-09-23T10:36:21.671Z,2030.62
2022-09-23T10:37:21.670Z,1935.00
2022-09-23T10:38:21.704Z,1816.88
2022-09-23T10:39:21.673Z,2278.12
2022-09-23T10:40:21.701Z,2165.62
2022-09-23T10:41:21.650Z,1411.88
2022-09-23T10:42:21.640Z,1051.88
2022-09-23T10:43:21.666Z,1884.38
2022-09-23T10:44:21.643Z,2109.38
2022-09-23T10:45:21.634Z,1597.50
2022-09-23T10:46:21.692Z,1299.38
2022-09-23T10:47:21.636Z,1271.25
2022-09-23T10:48:21.631Z,1209.38
2022-09-23T10:49:21.632Z,1530.00
2022-09-23T10:50:21.601Z,1710.00
2022-09-23T10:51:25.505Z,1867.50
2022-09-23T10:52:22.602Z,1726.88
2022-09-23T10:53:21.598Z,1771.88
2022-09-23T10:54:21.604Z,1850.62
2022-09-23T10:55:21.592Z,1794.38
2022-09-23T10:56:21.581Z,1215.00
2022-09-23T10:57:21.572Z,1423.12
2022-09-23T10:58:21.565Z,1591.88
2022-09-23T10:59:21.582Z,1906.88
2022-09-23T11:00:21.584Z,1490.62
2022-09-23T11:01:21.572Z,1400.62
2022-09-23T11:02:21.559Z,1501.88
2022-09-23T11:03:21.550Z,1890.00
2022-09-23T11:04:21.597Z,1760.62
2022-09-23T11:05:21.553Z,1670.62
2022-09-23T11:06:21.576Z,1575.00
2022-09-23T11:07:21.532Z,1732.50
2022-09-23T11:08:21.553Z,2030.62
2022-09-23T11:09:21.517Z,1935.00
2022-09-23T11:10:35.322Z,1839.38
2022-09-23T11:11:23.502Z,1755.00
2022-09-23T11:12:21.509Z,1850.62
2022-09-23T11:13:21.491Z,1591.88
2022-09-23T11:14:21.484Z,1541.25
2022-09-23T11:15:21.483Z,2154.38
2022-09-23T11:16:21.513Z,2019.38
2022-09-23T11:17:22.464Z,1653.75
2022-09-23T11:18:21.456Z,1850.62
2022-09-23T11:19:21.458Z,1890.00
2022-09-23T11:20:21.457Z,1794.38
2022-09-23T11:21:21.477Z,1873.12
2022-09-23T11:22:21.435Z,2008.12
2022-09-23T11:23:21.447Z,1603.12
2022-09-23T11:24:21.452Z,1546.88
2022-09-23T11:25:21.435Z,1496.25
2022-09-23T11:26:21.443Z,1631.25
2022-09-23T11:27:21.415Z,1608.75
2022-09-23T11:28:21.407Z,1546.88
2022-09-23T11:29:21.409Z,1608.75
2022-09-23T11:30:21.418Z,1631.25
2022-09-23T11:31:21.475Z,1636.88
2022-09-23T11:32:21.385Z,1710.00
2022-09-23T11:33:21.390Z,1715.62
2022-09-23T11:34:21.661Z,1681.88
2022-09-23T11:35:21.366Z,1816.88
2022-09-23T11:36:21.371Z,1721.25
2022-09-23T11:37:21.373Z,1490.62
2022-09-23T11:38:21.351Z,1648.12
2022-09-23T11:39:21.358Z,1631.25
2022-09-23T11:40:21.398Z,1428.75
2022-09-23T11:41:21.335Z,1456.88
2022-09-23T11:42:21.890Z,1485.00
2022-09-23T11:43:21.340Z,1620.00
2022-09-23T11:44:21.314Z,1710.00
2022-09-23T11:45:21.312Z,1681.88
2022-09-23T11:46:21.342Z,1620.00
2022-09-23T11:47:21.300Z,1518.75
2022-09-23T11:48:21.292Z,1428.75
2022-09-23T11:49:21.280Z,1288.12
2022-09-23T11:50:21.279Z,1012.50
2022-09-23T11:51:21.273Z,990.00
2022-09-23T11:52:21.276Z,961.88
2022-09-23T11:53:21.260Z,916.88
2022-09-23T11:54:21.347Z,1096.88
2022-09-23T11:55:23.176Z,1057.50
2022-09-23T11:56:31.604Z,1006.88
2022-09-23T11:57:23.260Z,933.75
2022-09-23T11:58:25.542Z,905.62
2022-09-23T11:59:33.894Z,978.75
2022-09-23T12:00:23.219Z,1231.88
2022-09-23T12:01:32.129Z,1316.25
2022-09-23T12:02:28.193Z,1490.62
2022-09-23T12:03:25.348Z,1501.88
2022-09-23T12:04:22.721Z,1575.00
2022-09-23T12:05:21.350Z,1636.88
2022-09-23T12:06:21.172Z,1636.88
2022-09-23T12:07:21.179Z,1777.50
2022-09-23T12:08:21.165Z,1760.62
2022-09-23T12:09:35.795Z,1710.00
2022-09-23T12:10:23.152Z,1766.25
2022-09-23T12:11:21.149Z,1816.88
2022-09-23T12:12:26.349Z,1800.00
2022-09-23T12:13:23.130Z,1884.38
2022-09-23T12:14:21.278Z,1496.25
2022-09-23T12:15:21.127Z,1563.75
2022-09-23T12:16:21.181Z,1586.25
2022-09-23T12:17:21.109Z,1445.62
2022-09-23T12:18:23.330Z,1237.50
2022-09-23T12:19:22.114Z,1001.25
2022-09-23T12:20:21.124Z,933.75
2022-09-23T12:21:45.858Z,945.00
2022-09-23T12:22:23.088Z,1001.25
2022-09-23T12:23:21.077Z,973.12
2022-09-23T12:24:21.072Z,860.62
2022-09-23T12:25:21.079Z,843.75
2022-09-23T12:26:21.099Z,776.25
2022-09-23T12:27:21.058Z,759.38
2022-09-23T12:28:21.046Z,720.00
2022-09-23T12:29:21.103Z,708.75
2022-09-23T12:30:21.104Z,680.62
2022-09-23T12:31:21.048Z,585.00
2022-09-23T12:32:21.024Z,573.75
2022-09-23T12:33:21.069Z,568.12
2022-09-23T12:34:21.012Z,573.75
2022-09-23T12:35:21.011Z,613.12
2022-09-23T12:36:21.001Z,652.50
2022-09-23T12:37:21.004Z,708.75
2022-09-23T12:38:20.976Z,776.25
2022-09-23T12:39:21.047Z,900.00
2022-09-23T12:40:20.984Z,928.12